createdAt,value
2022-11-13T00:02:48.915Z,101655.78
2022-11-13T00:06:11.048Z,101647.94
2022-11-13T00:09:30.877Z,101649.69
2022-11-13T00:12:50.787Z,101647.06
2022-11-13T00:16:13.215Z,101645.31
2022-11-13T00:19:33.238Z,101641.81
2022-11-13T00:22:53.188Z,101646.19
2022-11-13T00:26:23.829Z,101647.06
2022-11-13T00:29:43.797Z,101644.41
2022-11-13T00:33:03.815Z,101647.88
2022-11-13T00:36:26.681Z,101651.41
2022-11-13T00:39:46.637Z,101646.16
2022-11-13T00:43:06.565Z,101651.38
2022-11-13T00:46:26.631Z,101659.25
2022-11-13T00:49:46.708Z,101644.38
2022-11-13T00:53:06.890Z,101639.13
2022-11-13T00:56:27.123Z,101636.47
2022-11-13T00:59:46.918Z,101632.13
2022-11-13T01:03:07.031Z,101635.59
2022-11-13T01:06:28.139Z,101633.88
2022-11-13T01:09:51.317Z,101623.41
2022-11-13T01:13:12.408Z,101637.38
2022-11-13T01:16:32.410Z,101629.53
2022-11-13T01:19:52.325Z,101620.75
2022-11-13T01:23:12.346Z,101619.00
2022-11-13T01:26:32.243Z,101603.34
2022-11-13T01:29:52.273Z,101604.22
2022-11-13T01:33:12.374Z,101598.09
2022-11-13T01:36:32.205Z,101596.38
2022-11-13T01:39:52.247Z,101601.59
2022-11-13T01:43:34.032Z,101593.75
2022-11-13T01:46:55.829Z,101591.09
2022-11-13T01:50:15.975Z,101585.00
2022-11-13T01:53:36.104Z,101581.50
2022-11-13T01:56:56.612Z,101582.38
2022-11-13T02:00:16.421Z,101582.38
2022-11-13T02:03:36.906Z,101578.84
2022-11-13T02:07:03.647Z,101574.50
2022-11-13T02:10:23.688Z,101576.22
2022-11-13T02:13:44.265Z,101572.75
2022-11-13T02:17:08.488Z,101557.91
2022-11-13T02:20:50.276Z,101559.66
2022-11-13T02:24:16.707Z,101557.91
2022-11-13T02:27:44.890Z,101559.63
2022-11-13T02:31:13.010Z,101561.41
2022-11-13T02:34:33.241Z,101555.28
2022-11-13T02:37:56.232Z,101552.66
2022-11-13T02:41:16.399Z,101551.78
2022-11-13T02:44:36.252Z,101554.38
2022-11-13T02:47:56.069Z,101551.78
2022-11-13T02:51:16.159Z,101553.53
2022-11-13T02:54:36.119Z,101543.94
2022-11-13T02:57:56.413Z,101536.94
2022-11-13T03:01:16.397Z,101529.94
2022-11-13T03:05:09.834Z,101529.06
2022-11-13T03:08:17.226Z,101523.81
2022-11-13T03:11:37.080Z,101522.09
2022-11-13T03:14:57.020Z,101532.56
2022-11-13T03:18:16.986Z,101528.22
2022-11-13T03:21:36.781Z,101523.84
2022-11-13T03:24:57.275Z,101515.09
2022-11-13T03:28:17.336Z,101518.59
2022-11-13T03:31:37.303Z,101517.69
2022-11-13T03:34:57.489Z,101503.72
2022-11-13T03:38:17.719Z,101503.72
2022-11-13T03:41:37.739Z,101510.75
2022-11-13T03:44:57.633Z,101500.25
2022-11-13T03:48:17.856Z,101508.09
2022-11-13T03:51:37.684Z,101502.84
2022-11-13T03:54:57.499Z,101492.41
2022-11-13T03:58:17.385Z,101491.53
2022-11-13T04:01:37.488Z,101490.66
2022-11-13T04:04:57.226Z,101490.66
2022-11-13T04:08:18.294Z,101494.16
2022-11-13T04:11:38.221Z,101483.66
2022-11-13T04:14:57.935Z,101485.41
2022-11-13T04:18:17.728Z,101487.13
2022-11-13T04:21:37.480Z,101484.53
2022-11-13T04:24:57.357Z,101489.78
2022-11-13T04:28:17.188Z,101487.13
2022-11-13T04:31:36.858Z,101475.81
2022-11-13T04:34:56.574Z,101476.66
2022-11-13T04:38:16.508Z,101473.19
2022-11-13T04:41:55.690Z,101468.78
2022-11-13T04:45:22.311Z,101473.19
2022-11-13T04:48:42.365Z,101472.28
2022-11-13T04:52:02.214Z,101481.88
2022-11-13T04:55:21.942Z,101473.16
2022-11-13T04:58:41.714Z,101466.19
2022-11-13T05:02:01.958Z,101474.03
2022-11-13T05:05:21.784Z,101463.53
2022-11-13T05:08:41.728Z,101460.03
2022-11-13T05:12:01.461Z,101455.66
2022-11-13T05:15:21.283Z,101453.91
2022-11-13T05:18:41.377Z,101450.44
2022-11-13T05:22:01.669Z,101438.19
2022-11-13T05:25:21.796Z,101431.22
2022-11-13T05:28:41.640Z,101432.97
2022-11-13T05:32:01.447Z,101426.00
2022-11-13T05:35:21.189Z,101423.38
2022-11-13T05:38:41.768Z,101422.50
2022-11-13T05:42:01.871Z,101416.41
2022-11-13T05:45:22.750Z,101415.53
2022-11-13T05:48:43.190Z,101414.66
2022-11-13T05:52:03.178Z,101417.25
2022-11-13T05:55:23.584Z,101412.06
2022-11-13T05:58:44.236Z,101418.16
2022-11-13T06:02:04.506Z,101410.28
2022-11-13T06:05:24.363Z,101410.28
2022-11-13T06:08:45.227Z,101410.25
2022-11-13T06:12:05.296Z,101404.97
2022-11-13T06:15:25.438Z,101404.97
2022-11-13T06:18:46.161Z,101400.56
2022-11-13T06:22:06.408Z,101400.63
2022-11-13T06:25:27.491Z,101386.69
2022-11-13T06:28:48.231Z,101389.31
2022-11-13T06:32:08.432Z,101391.06
2022-11-13T06:35:28.424Z,101386.69
2022-11-13T06:38:49.779Z,101378.81
2022-11-13T06:42:10.020Z,101372.75
2022-11-13T06:45:29.951Z,101371.84
2022-11-13T06:48:50.362Z,101373.59
2022-11-13T06:52:10.128Z,101378.81
2022-11-13T06:55:30.035Z,101377.06
2022-11-13T06:58:49.997Z,101383.25
2022-11-13T07:02:11.631Z,101375.38
2022-11-13T07:05:31.395Z,101372.81
2022-11-13T07:08:51.700Z,101380.63
2022-11-13T07:12:11.736Z,101377.13
2022-11-13T07:15:39.240Z,101378.88
2022-11-13T07:18:59.097Z,101370.16
2022-11-13T07:22:18.913Z,101365.81
2022-11-13T07:25:38.748Z,101364.94
2022-11-13T07:28:58.686Z,101361.44
2022-11-13T07:32:18.781Z,101355.34
2022-11-13T07:35:38.464Z,101357.06
2022-11-13T07:39:00.358Z,101364.94
2022-11-13T07:42:20.369Z,101358.81
2022-11-13T07:45:40.314Z,101353.56
2022-11-13T07:49:00.037Z,101355.31
2022-11-13T07:52:19.872Z,101359.69
2022-11-13T07:55:39.903Z,101341.34
2022-11-13T07:58:59.799Z,101344.00
2022-11-13T08:02:25.101Z,101343.97
2022-11-13T08:05:46.709Z,101347.47
2022-11-13T08:09:06.568Z,101341.38
2022-11-13T08:12:26.697Z,101332.66
2022-11-13T08:15:46.547Z,101329.16
2022-11-13T08:19:06.415Z,101324.81
2022-11-13T08:22:26.625Z,101331.75
2022-11-13T08:25:46.744Z,101331.75
2022-11-13T08:29:06.877Z,101331.75
2022-11-13T08:32:26.954Z,101333.53
2022-11-13T08:35:58.741Z,101327.41
2022-11-13T08:39:18.828Z,101324.78
2022-11-13T08:42:38.499Z,101330.84
2022-11-13T08:45:58.496Z,101319.53
2022-11-13T08:49:18.712Z,101317.78
2022-11-13T08:52:38.681Z,101312.53
2022-11-13T08:56:02.601Z,101307.31
2022-11-13T08:59:27.043Z,101291.59
2022-11-13T09:02:46.982Z,101294.22
2022-11-13T09:06:07.834Z,101302.13
2022-11-13T09:09:27.625Z,101309.09
2022-11-13T09:12:47.530Z,101302.13
2022-11-13T09:16:07.457Z,101298.63
2022-11-13T09:19:28.025Z,101289.03
2022-11-13T09:22:47.882Z,101284.66
2022-11-13T09:26:07.692Z,101275.94
2022-11-13T09:29:28.583Z,101277.69
2022-11-13T09:32:53.950Z,101274.19
2022-11-13T09:36:15.536Z,101262.84
2022-11-13T09:39:35.687Z,101273.31
2022-11-13T09:42:55.927Z,101271.56
2022-11-13T09:46:30.492Z,101251.53
2022-11-13T09:50:13.518Z,101251.50
2022-11-13T09:53:37.106Z,101248.91
2022-11-13T09:57:15.402Z,101247.16
2022-11-13T10:00:36.341Z,101241.03
2022-11-13T10:04:03.467Z,101245.38
2022-11-13T10:08:06.752Z,101241.88
2022-11-13T10:11:46.099Z,101248.00
2022-11-13T10:15:07.073Z,101250.66
2022-11-13T10:18:33.383Z,101245.38
2022-11-13T10:22:26.020Z,101242.78
2022-11-13T10:25:42.268Z,101234.94
2022-11-13T10:29:29.519Z,101226.22
2022-11-13T10:32:50.646Z,101213.97
2022-11-13T10:36:32.780Z,101213.06
2022-11-13T10:39:52.656Z,101204.31
2022-11-13T10:43:24.419Z,101188.53
2022-11-13T10:46:44.469Z,101187.56
2022-11-13T10:50:31.236Z,101190.13
2022-11-13T10:53:52.135Z,101186.72
2022-11-13T10:57:30.151Z,101171.03
2022-11-13T11:00:50.495Z,101163.19
2022-11-13T11:04:24.449Z,101158.75
2022-11-13T11:07:44.482Z,101158.69
2022-11-13T11:11:35.365Z,101154.16
2022-11-13T11:14:58.863Z,101142.84
2022-11-13T11:18:30.615Z,101140.97
2022-11-13T11:21:55.515Z,101137.41
2022-11-13T11:25:48.647Z,101143.50
2022-11-13T11:29:18.410Z,101140.81
2022-11-13T11:33:04.864Z,101123.13
2022-11-13T11:36:41.826Z,101128.28
2022-11-13T11:40:17.204Z,101109.84
2022-11-13T11:44:01.997Z,101107.97
2022-11-13T11:47:22.138Z,101095.53
2022-11-13T11:50:57.669Z,101085.81
2022-11-13T11:54:43.725Z,101069.06
2022-11-13T11:58:18.657Z,101057.56
2022-11-13T12:02:03.313Z,101047.75
2022-11-13T12:05:57.297Z,101044.81
2022-11-13T12:09:27.760Z,101025.50
2022-11-13T12:13:31.251Z,101020.06
2022-11-13T12:17:00.061Z,101014.81
2022-11-13T12:20:26.103Z,101014.69
2022-11-13T12:24:04.658Z,100993.66
2022-11-13T12:27:29.474Z,100994.47
2022-11-13T12:30:52.375Z,100978.59
2022-11-13T12:34:54.353Z,100965.34
2022-11-13T12:38:21.315Z,100956.56
2022-11-13T12:42:01.252Z,100956.56
2022-11-13T12:45:26.292Z,100956.56
2022-11-13T12:48:47.775Z,100955.69
2022-11-13T12:52:20.676Z,100942.38
2022-11-13T12:55:41.331Z,100945.84
2022-11-13T12:59:31.580Z,100948.47
2022-11-13T13:02:57.691Z,100940.69
2022-11-13T13:06:33.385Z,100937.06
2022-11-13T13:10:01.271Z,100922.81
2022-11-13T13:13:48.083Z,100919.03
2022-11-13T13:17:14.038Z,100901.31
2022-11-13T13:20:37.612Z,100897.66
2022-11-13T13:24:07.332Z,100890.56
2022-11-13T13:27:29.353Z,100881.53
2022-11-13T13:31:11.425Z,100883.16
2022-11-13T13:34:55.698Z,100874.91
2022-11-13T13:38:26.723Z,100866.72
2022-11-13T13:42:05.576Z,100870.78
2022-11-13T13:45:49.872Z,100862.81
2022-11-13T13:49:16.969Z,100845.97
2022-11-13T13:52:37.838Z,100844.78
2022-11-13T13:55:58.991Z,100856.84
2022-11-13T13:59:29.993Z,100850.06
2022-11-13T14:02:52.907Z,100838.09
2022-11-13T14:06:22.444Z,100834.69
2022-11-13T14:09:42.345Z,100838.28
2022-11-13T14:13:03.091Z,100829.59
2022-11-13T14:16:22.951Z,100816.56
2022-11-13T14:19:49.508Z,100818.28
2022-11-13T14:23:13.780Z,100808.72
2022-11-13T14:26:34.150Z,100809.50
2022-11-13T14:30:01.608Z,100794.72
2022-11-13T14:33:31.561Z,100782.53
2022-11-13T14:36:51.686Z,100785.97
2022-11-13T14:40:21.271Z,100787.09
2022-11-13T14:43:49.566Z,100776.59
2022-11-13T14:47:28.605Z,100782.97
2022-11-13T14:51:03.938Z,100782.81
2022-11-13T14:55:13.099Z,100782.06
2022-11-13T14:58:36.638Z,100789.09
2022-11-13T15:01:57.986Z,100787.38
2022-11-13T15:05:18.025Z,100778.72
2022-11-13T15:08:38.844Z,100768.19
2022-11-13T15:11:58.601Z,100763.81
2022-11-13T15:15:22.721Z,100755.94
2022-11-13T15:18:48.492Z,100770.84
2022-11-13T15:22:26.531Z,100780.59
2022-11-13T15:25:47.443Z,100780.63
2022-11-13T15:29:07.596Z,100778.88
2022-11-13T15:32:28.904Z,100771.97
2022-11-13T15:35:49.105Z,100758.13
2022-11-13T15:39:12.697Z,100752.09
2022-11-13T15:42:38.785Z,100752.47
2022-11-13T15:45:58.888Z,100752.72
2022-11-13T15:49:18.796Z,100761.63
2022-11-13T15:52:42.143Z,100764.22
2022-11-13T15:56:05.003Z,100758.03
2022-11-13T15:59:25.020Z,100771.41
2022-11-13T16:02:45.619Z,100767.16
2022-11-13T16:06:11.545Z,100760.28
2022-11-13T16:09:31.437Z,100763.97
2022-11-13T16:12:52.389Z,100750.06
2022-11-13T16:16:23.756Z,100757.09
2022-11-13T16:19:44.042Z,100754.63
2022-11-13T16:23:04.118Z,100769.53
2022-11-13T16:26:25.896Z,100760.88
2022-11-13T16:29:45.707Z,100752.06
2022-11-13T16:33:09.129Z,100748.69
2022-11-13T16:36:29.002Z,100745.31
2022-11-13T16:39:49.649Z,100741.91
2022-11-13T16:43:10.736Z,100751.66
2022-11-13T16:46:33.501Z,100761.50
2022-11-13T16:49:53.574Z,100752.84
2022-11-13T16:53:13.564Z,100758.16
2022-11-13T16:56:33.530Z,100751.22
2022-11-13T16:59:53.345Z,100741.69
2022-11-13T17:03:13.195Z,100743.72
2022-11-13T17:06:34.987Z,100739.56
2022-11-13T17:10:16.583Z,100741.41
2022-11-13T17:13:35.032Z,100729.13
2022-11-13T17:16:55.198Z,100725.66
2022-11-13T17:20:18.168Z,100729.16
2022-11-13T17:23:38.169Z,100718.75
2022-11-13T17:26:58.297Z,100724.09
2022-11-13T17:30:18.390Z,100719.88
2022-11-13T17:33:40.155Z,100713.78
2022-11-13T17:37:01.441Z,100719.88
2022-11-13T17:40:21.540Z,100713.69
2022-11-13T17:43:42.156Z,100711.94
2022-11-13T17:47:02.180Z,100713.88
2022-11-13T17:50:22.231Z,100722.81
2022-11-13T17:53:42.572Z,100717.56
2022-11-13T17:57:02.652Z,100713.28
2022-11-13T18:00:22.802Z,100712.56
2022-11-13T18:03:43.260Z,100705.75
2022-11-13T18:07:03.438Z,100710.13
2022-11-13T18:10:23.758Z,100711.00
2022-11-13T18:13:44.318Z,100712.69
2022-11-13T18:17:04.487Z,100716.38
2022-11-13T18:20:24.525Z,100715.44
2022-11-13T18:23:44.908Z,100711.94
2022-11-13T18:27:07.705Z,100707.72
2022-11-13T18:30:27.689Z,100706.06
2022-11-13T18:33:47.660Z,100710.59
2022-11-13T18:37:07.813Z,100715.03
2022-11-13T18:40:27.703Z,100707.16
2022-11-13T18:43:49.820Z,100713.34
2022-11-13T18:47:09.637Z,100708.13
2022-11-13T18:50:29.511Z,100706.31
2022-11-13T18:53:50.771Z,100703.59
2022-11-13T18:57:10.670Z,100706.16
2022-11-13T19:00:30.843Z,100706.16
2022-11-13T19:04:21.052Z,100703.47
2022-11-13T19:07:32.448Z,100696.44
2022-11-13T19:10:52.643Z,100692.09
2022-11-13T19:14:17.842Z,100694.72
2022-11-13T19:17:37.958Z,100695.59
2022-11-13T19:20:57.928Z,100699.16
2022-11-13T19:24:17.818Z,100685.19
2022-11-13T19:27:37.799Z,100683.31
2022-11-13T19:30:57.917Z,100684.22
2022-11-13T19:34:18.344Z,100678.94
2022-11-13T19:37:38.571Z,100670.34
2022-11-13T19:40:58.568Z,100676.44
2022-11-13T19:44:18.724Z,100675.59
2022-11-13T19:47:38.568Z,100673.75
2022-11-13T19:51:06.290Z,100665.97
2022-11-13T19:54:26.549Z,100671.19
2022-11-13T19:57:46.702Z,100667.72
2022-11-13T20:01:15.960Z,100683.38
2022-11-13T20:04:35.809Z,100672.94
2022-11-13T20:07:58.303Z,100682.66
2022-11-13T20:11:18.576Z,100687.91
2022-11-13T20:14:38.858Z,100696.94
2022-11-13T20:17:58.700Z,100696.84
2022-11-13T20:21:26.343Z,100702.88
2022-11-13T20:24:46.270Z,100702.13
2022-11-13T20:28:06.143Z,100698.06
2022-11-13T20:31:27.751Z,100697.31
2022-11-13T20:34:47.798Z,100697.69
2022-11-13T20:38:07.912Z,100697.72
2022-11-13T20:41:28.283Z,100697.84
2022-11-13T20:44:48.696Z,100698.88
2022-11-13T20:48:08.897Z,100701.44
2022-11-13T20:51:29.019Z,100700.72
2022-11-13T20:54:49.193Z,100704.16
2022-11-13T20:58:09.241Z,100705.75
2022-11-13T21:01:30.200Z,100704.06
2022-11-13T21:04:50.643Z,100694.53
2022-11-13T21:08:11.099Z,100701.59
2022-11-13T21:11:31.286Z,100706.78
2022-11-13T21:14:51.979Z,100698.88
2022-11-13T21:18:12.013Z,100701.47
2022-11-13T21:21:32.356Z,100701.50
2022-11-13T21:24:52.412Z,100693.59
2022-11-13T21:28:12.414Z,100690.91
2022-11-13T21:31:32.786Z,100699.66
2022-11-13T21:34:58.847Z,100700.66
2022-11-13T21:38:19.141Z,100704.13
2022-11-13T21:41:39.092Z,100691.03
2022-11-13T21:44:59.029Z,100689.22
2022-11-13T21:48:19.147Z,100689.97
2022-11-13T21:51:41.325Z,100685.56
2022-11-13T21:55:01.246Z,100684.69
2022-11-13T21:58:32.134Z,100683.75
2022-11-13T22:01:52.252Z,100664.50
2022-11-13T22:05:12.666Z,100663.63
2022-11-13T22:08:32.613Z,100662.69
2022-11-13T22:11:53.000Z,100656.50
2022-11-13T22:15:13.179Z,100656.41
2022-11-13T22:18:33.878Z,100652.81
2022-11-13T22:21:54.228Z,100644.03
2022-11-13T22:25:14.460Z,100645.72
2022-11-13T22:28:36.434Z,100643.97
2022-11-13T22:31:56.676Z,100640.47
2022-11-13T22:35:16.493Z,100640.38
2022-11-13T22:38:37.806Z,100636.78
2022-11-13T22:41:57.925Z,100636.69
2022-11-13T22:45:23.713Z,100635.72
2022-11-13T22:48:46.108Z,100633.03
2022-11-13T22:52:05.905Z,100621.75
2022-11-13T22:55:25.811Z,100631.28
2022-11-13T22:58:46.649Z,100625.97
2022-11-13T23:02:06.498Z,100625.97
2022-11-13T23:05:26.395Z,100625.88
2022-11-13T23:08:46.655Z,100628.59
2022-11-13T23:12:06.459Z,100631.13
2022-11-13T23:15:26.364Z,100620.63
2022-11-13T23:18:47.071Z,100620.56
2022-11-13T23:22:06.977Z,100615.38
2022-11-13T23:25:26.807Z,100610.16
2022-11-13T23:28:46.844Z,100607.63
2022-11-13T23:32:06.992Z,100613.72
2022-11-13T23:35:27.072Z,100606.78
2022-11-13T23:38:47.434Z,100603.34
2022-11-13T23:42:07.563Z,100612.97
2022-11-13T23:45:27.540Z,100608.75
2022-11-13T23:48:47.707Z,100603.59
2022-11-13T23:52:07.755Z,100608.88
2022-11-13T23:55:28.190Z,100602.72
2022-11-13T23:58:48.432Z,100607.06
